Time;durP1;ratioP1;P1;durP2;ratioP2;P2;SDS_P1;SDS_P2;PMS_P1;PMS_P2;Temp;Humidity;BMP_temperature;BMP_pressure;BME280_temperature;BME280_humidity;BME280_pressure;Samples;Min_cycle;Max_cycle;Signal;HPM_P1;HPM_P2
2024/01/28 00:00:16;;;;;;;5.93;1.42;;;5.20;99.90;;;;;;5051244;28;20524;-66
2024/01/28 00:02:42;;;;;;;5.50;1.88;;;5.20;99.90;;;;;;5047420;28;20520;-65
2024/01/28 00:05:07;;;;;;;6.32;2.05;;;5.30;99.90;;;;;;5032900;28;20495;-65
2024/01/28 00:07:33;;;;;;;5.50;1.67;;;5.20;99.90;;;;;;5049349;28;20029;-65
2024/01/28 00:09:59;;;;;;;13.25;1.60;;;5.20;99.90;;;;;;5027110;28;20037;-65
2024/01/28 00:12:25;;;;;;;5.75;1.50;;;5.20;99.90;;;;;;5044601;28;20078;-66
2024/01/28 00:14:50;;;;;;;6.03;1.67;;;5.20;99.90;;;;;;5050125;28;20556;-66
2024/01/28 00:17:16;;;;;;;13.43;6.40;;;5.10;99.90;;;;;;5048867;28;20035;-65
2024/01/28 00:19:41;;;;;;;6.07;1.70;;;5.10;99.90;;;;;;5037081;28;20051;-67
2024/01/28 00:22:07;;;;;;;4.65;1.40;;;5.10;99.90;;;;;;5033285;28;20045;-66
2024/01/28 00:24:33;;;;;;;6.03;1.73;;;5.10;99.90;;;;;;5029233;28;20025;-66
2024/01/28 00:26:58;;;;;;;3.60;1.83;;;5.10;99.90;;;;;;5029787;28;20114;-67
2024/01/28 00:29:28;;;;;;;6.82;2.05;;;5.00;99.90;;;;;;5029668;28;20442;-66
2024/01/28 00:31:55;;;;;;;5.00;1.77;;;5.10;99.90;;;;;;5027956;28;20029;-67
2024/01/28 00:34:22;;;;;;;7.72;1.60;;;5.10;99.90;;;;;;5026416;28;20029;-66
2024/01/28 00:36:48;;;;;;;5.22;1.75;;;5.00;99.90;;;;;;5028162;28;20103;-66
2024/01/28 00:39:13;;;;;;;10.15;1.50;;;5.00;99.90;;;;;;5033805;28;20423;-66
2024/01/28 00:41:39;;;;;;;6.82;1.98;;;5.00;99.90;;;;;;5026752;28;20044;-67
2024/01/28 00:44:05;;;;;;;4.82;1.50;;;5.00;99.90;;;;;;5027978;28;20044;-66
2024/01/28 00:46:33;;;;;;;6.13;1.98;;;5.00;99.90;;;;;;5026131;28;20033;-66
2024/01/28 00:48:59;;;;;;;9.15;1.60;;;5.00;99.90;;;;;;5030724;28;20035;-66
2024/01/28 00:51:24;;;;;;;3.92;1.30;;;5.00;99.90;;;;;;5032281;28;20036;-66
2024/01/28 00:53:50;;;;;;;4.65;1.33;;;4.90;99.90;;;;;;5029050;28;20051;-66
2024/01/28 00:56:17;;;;;;;4.32;1.17;;;4.90;99.90;;;;;;5030127;28;20616;-66
2024/01/28 00:58:44;;;;;;;6.00;1.13;;;5.00;99.90;;;;;;5031399;28;20049;-66
2024/01/28 01:01:09;;;;;;;4.30;1.42;;;5.00;99.90;;;;;;5029198;28;20124;-66
2024/01/28 01:03:35;;;;;;;3.78;1.55;;;5.00;99.90;;;;;;5028184;28;20028;-66
2024/01/28 01:06:01;;;;;;;4.47;1.77;;;5.00;99.90;;;;;;5029943;28;20045;-66
2024/01/28 01:08:27;;;;;;;5.32;1.45;;;5.00;99.90;;;;;;5032102;28;20033;-69
2024/01/28 01:10:53;;;;;;;6.95;1.63;;;5.00;99.90;;;;;;5031600;28;20059;-69
2024/01/28 01:13:19;;;;;;;4.10;1.52;;;5.00;99.90;;;;;;5031755;28;20123;-68
2024/01/28 01:15:45;;;;;;;4.68;1.98;;;5.00;99.90;;;;;;5027461;28;20033;-69
2024/01/28 01:18:11;;;;;;;15.85;8.80;;;4.90;99.90;;;;;;5026391;28;20045;-69
2024/01/28 01:20:37;;;;;;;7.13;3.20;;;4.90;99.90;;;;;;5046038;28;20060;-69
2024/01/28 01:23:03;;;;;;;4.90;1.67;;;4.90;99.90;;;;;;5049395;28;20063;-68
2024/01/28 01:25:28;;;;;;;3.38;1.25;;;4.90;99.90;;;;;;5048052;28;20194;-67
2024/01/28 01:27:54;;;;;;;4.35;1.25;;;4.90;99.90;;;;;;5048598;28;20627;-66
2024/01/28 01:30:20;;;;;;;6.20;1.60;;;4.90;99.90;;;;;;5047310;28;20512;-66
2024/01/28 01:32:47;;;;;;;5.35;1.83;;;5.00;99.90;;;;;;5039836;28;20049;-66
2024/01/28 01:35:15;;;;;;;3.13;1.20;;;4.90;99.90;;;;;;5045604;28;20419;-67
2024/01/28 01:37:41;;;;;;;5.82;2.10;;;4.90;99.90;;;;;;5050973;28;20563;-67
2024/01/28 01:40:07;;;;;;;4.35;1.38;;;4.90;99.90;;;;;;5048156;28;20044;-67
2024/01/28 01:42:33;;;;;;;5.35;1.42;;;4.90;99.90;;;;;;5050458;28;20017;-68
2024/01/28 01:44:59;;;;;;;4.63;1.58;;;4.90;99.90;;;;;;5050890;28;20419;-67
2024/01/28 01:47:28;;;;;;;4.75;1.10;;;4.90;99.90;;;;;;5048441;28;20131;-67
2024/01/28 01:49:54;;;;;;;4.82;1.17;;;4.90;99.90;;;;;;5046075;28;20063;-67
2024/01/28 01:52:21;;;;;;;3.97;1.25;;;4.90;99.90;;;;;;5050348;28;20052;-67
2024/01/28 01:54:49;;;;;;;3.55;1.90;;;5.00;99.90;;;;;;5047672;28;20040;-67
2024/01/28 01:57:16;;;;;;;5.00;1.40;;;5.00;99.90;;;;;;5050118;28;20100;-67
2024/01/28 01:59:42;;;;;;;3.95;1.50;;;5.00;99.90;;;;;;5046603;28;20039;-67
2024/01/28 02:02:09;;;;;;;4.70;1.35;;;5.00;99.90;;;;;;5049482;28;20033;-67
2024/01/28 02:04:38;;;;;;;5.13;1.60;;;5.00;99.90;;;;;;5046652;28;20078;-67
2024/01/28 02:07:04;;;;;;;6.97;1.60;;;5.00;99.90;;;;;;5049646;28;20105;-67
2024/01/28 02:09:31;;;;;;;3.53;1.52;;;5.00;99.90;;;;;;5047395;28;20381;-67
2024/01/28 02:11:56;;;;;;;3.78;1.52;;;5.00;99.90;;;;;;5054531;28;20120;-67
2024/01/28 02:14:23;;;;;;;7.97;1.60;;;4.90;99.90;;;;;;5052334;28;20174;-67
2024/01/28 02:16:49;;;;;;;5.95;1.55;;;5.00;99.90;;;;;;5051895;28;20051;-67
2024/01/28 02:19:16;;;;;;;5.35;1.30;;;5.00;99.90;;;;;;5052242;28;20552;-67
2024/01/28 02:21:41;;;;;;;5.55;1.20;;;4.90;99.90;;;;;;5052753;28;20048;-67
2024/01/28 02:24:07;;;;;;;6.53;1.30;;;4.90;99.90;;;;;;5053034;28;20138;-67
2024/01/28 02:26:33;;;;;;;5.03;1.73;;;4.90;99.90;;;;;;5051278;28;20035;-67
2024/01/28 02:28:58;;;;;;;6.13;1.58;;;4.80;99.90;;;;;;5051752;28;20044;-67
2024/01/28 02:31:24;;;;;;;5.43;1.35;;;4.90;99.90;;;;;;5050211;28;20032;-67
2024/01/28 02:33:50;;;;;;;4.88;1.27;;;4.90;99.90;;;;;;5054658;28;20260;-67
2024/01/28 02:36:16;;;;;;;3.45;1.55;;;4.90;99.90;;;;;;5052276;28;20682;-67
2024/01/28 02:38:42;;;;;;;7.60;1.70;;;5.00;99.90;;;;;;5055468;28;20021;-67
2024/01/28 02:41:08;;;;;;;7.05;1.83;;;5.00;99.90;;;;;;5048263;28;20059;-67
2024/01/28 02:43:34;;;;;;;5.22;1.25;;;5.00;99.90;;;;;;5054733;28;20169;-66
2024/01/28 02:46:00;;;;;;;7.05;1.90;;;5.10;99.90;;;;;;5049168;28;20032;-67
2024/01/28 02:48:25;;;;;;;5.70;1.83;;;5.10;99.90;;;;;;5051567;28;20063;-67
2024/01/28 02:50:51;;;;;;;5.07;1.30;;;5.10;99.90;;;;;;5052703;28;20141;-67
2024/01/28 02:53:17;;;;;;;6.85;1.70;;;5.10;99.90;;;;;;5052508;28;20786;-67
2024/01/28 02:55:42;;;;;;;6.55;2.15;;;5.00;99.90;;;;;;5050345;28;20032;-67
2024/01/28 02:58:08;;;;;;;5.97;1.67;;;5.10;99.90;;;;;;5051271;28;20138;-67
2024/01/28 03:00:36;;;;;;;7.40;1.70;;;5.00;99.90;;;;;;5054344;28;20073;-67
2024/01/28 03:03:03;;;;;;;10.18;1.77;;;5.00;99.90;;;;;;5050314;28;20083;-67
2024/01/28 03:05:29;;;;;;;7.63;2.13;;;5.00;99.90;;;;;;5049640;28;20055;-67
2024/01/28 03:07:55;;;;;;;5.57;1.85;;;5.00;99.90;;;;;;5055048;28;20028;-66
2024/01/28 03:10:20;;;;;;;7.60;1.92;;;5.00;99.90;;;;;;5054483;28;20089;-67
2024/01/28 03:12:49;;;;;;;5.70;2.15;;;5.00;99.90;;;;;;5056877;28;20036;-67
2024/01/28 03:15:19;;;;;;;5.10;2.35;;;5.00;99.90;;;;;;5045035;28;20174;-67
2024/01/28 03:17:46;;;;;;;4.45;1.90;;;5.00;99.90;;;;;;5050431;28;20142;-68
2024/01/28 03:20:11;;;;;;;4.38;1.88;;;5.00;99.90;;;;;;5043997;28;20048;-67
2024/01/28 03:22:37;;;;;;;4.97;1.67;;;5.00;99.90;;;;;;5047322;28;20083;-67
2024/01/28 03:25:03;;;;;;;5.13;1.60;;;5.00;99.90;;;;;;5047941;28;20503;-67
2024/01/28 03:27:29;;;;;;;4.70;1.63;;;5.00;99.90;;;;;;5045616;28;20123;-67
2024/01/28 03:29:55;;;;;;;4.32;1.73;;;5.00;99.90;;;;;;5043877;28;20034;-66
2024/01/28 03:32:20;;;;;;;4.45;1.85;;;5.00;99.90;;;;;;5043825;28;20048;-66
2024/01/28 03:34:46;;;;;;;6.43;1.65;;;5.00;99.90;;;;;;5049665;28;20491;-66
2024/01/28 03:37:12;;;;;;;4.82;1.88;;;4.90;99.90;;;;;;5046776;28;20408;-66
2024/01/28 03:39:37;;;;;;;3.28;1.45;;;5.00;99.90;;;;;;5048102;28;20765;-66
2024/01/28 03:42:03;;;;;;;6.05;1.60;;;4.90;99.90;;;;;;5046571;28;20045;-66
2024/01/28 03:44:29;;;;;;;6.20;1.90;;;4.90;99.90;;;;;;5046271;28;20044;-66
2024/01/28 03:46:55;;;;;;;4.40;2.00;;;4.90;99.90;;;;;;5047225;28;20075;-66
2024/01/28 03:49:21;;;;;;;5.60;2.00;;;4.90;99.90;;;;;;5043504;28;20585;-67
2024/01/28 03:51:46;;;;;;;5.72;1.77;;;4.90;99.90;;;;;;5046144;28;20115;-67
2024/01/28 03:54:12;;;;;;;5.22;1.63;;;4.90;99.90;;;;;;5045888;28;20421;-66
2024/01/28 03:56:40;;;;;;;5.90;1.80;;;4.90;99.90;;;;;;5047654;28;20090;-66
2024/01/28 03:59:06;;;;;;;9.25;2.38;;;4.80;99.90;;;;;;5044589;28;20388;-67
2024/01/28 04:01:33;;;;;;;4.55;1.67;;;4.80;99.90;;;;;;5047446;28;20040;-67
2024/01/28 04:03:59;;;;;;;4.57;1.55;;;4.80;99.90;;;;;;5024846;28;20543;-66
2024/01/28 04:06:25;;;;;;;6.32;1.70;;;4.80;99.90;;;;;;5042979;28;20033;-67
2024/01/28 04:08:55;;;;;;;6.88;1.70;;;4.80;99.90;;;;;;5044589;28;20033;-67
2024/01/28 04:11:24;;;;;;;8.95;2.08;;;4.80;99.90;;;;;;5048612;28;20060;-67
2024/01/28 04:13:49;;;;;;;3.78;1.50;;;4.80;99.90;;;;;;5045891;28;20073;-67
2024/01/28 04:16:15;;;;;;;5.80;1.70;;;4.80;99.90;;;;;;5046161;28;20201;-68
2024/01/28 04:18:41;;;;;;;5.70;1.50;;;4.70;99.90;;;;;;5043346;28;20066;-67
2024/01/28 04:21:06;;;;;;;5.90;1.50;;;4.70;99.90;;;;;;5043998;28;20096;-67
2024/01/28 04:23:32;;;;;;;5.43;1.80;;;4.80;99.90;;;;;;5044808;28;20037;-67
2024/01/28 04:25:57;;;;;;;2.88;1.40;;;4.80;99.90;;;;;;5043000;28;20697;-67
2024/01/28 04:28:25;;;;;;;5.70;2.00;;;4.80;99.90;;;;;;5043188;28;20170;-67
2024/01/28 04:30:51;;;;;;;3.75;1.73;;;4.80;99.90;;;;;;5043086;28;20036;-67
2024/01/28 04:33:17;;;;;;;7.47;2.85;;;4.80;99.90;;;;;;5044106;28;20028;-67
2024/01/28 04:35:43;;;;;;;5.97;2.15;;;4.90;99.90;;;;;;5036738;28;20067;-67
2024/01/28 04:38:08;;;;;;;7.47;1.95;;;4.80;99.90;;;;;;5045083;28;20032;-67
2024/01/28 04:40:34;;;;;;;5.35;1.85;;;4.80;99.90;;;;;;5043389;28;20033;-66
2024/01/28 04:42:59;;;;;;;9.25;2.15;;;4.80;99.90;;;;;;5040932;28;20036;-67
2024/01/28 04:45:25;;;;;;;4.93;2.00;;;4.80;99.90;;;;;;5043080;28;20068;-67
2024/01/28 04:47:51;;;;;;;5.78;2.25;;;4.70;99.90;;;;;;5044309;28;20031;-67
2024/01/28 04:50:16;;;;;;;4.97;1.70;;;4.70;99.90;;;;;;5044821;28;20036;-66
2024/01/28 04:52:42;;;;;;;7.80;2.00;;;4.70;99.90;;;;;;5044390;28;20032;-67
2024/01/28 04:55:07;;;;;;;5.65;1.90;;;4.70;99.90;;;;;;5044946;28;20205;-66
2024/01/28 04:57:33;;;;;;;5.95;1.90;;;4.70;99.90;;;;;;5046810;28;20044;-67
2024/01/28 04:59:59;;;;;;;16.35;11.20;;;4.60;99.90;;;;;;5044542;28;20487;-67
2024/01/28 05:02:24;;;;;;;9.43;4.45;;;4.60;99.90;;;;;;5039970;28;20692;-67
2024/01/28 05:04:50;;;;;;;5.80;3.13;;;4.50;99.90;;;;;;5046958;28;20020;-66
2024/01/28 05:07:16;;;;;;;3.85;2.10;;;4.40;99.90;;;;;;5049458;28;20029;-66
2024/01/28 05:09:42;;;;;;;5.38;2.25;;;4.30;99.90;;;;;;5052112;28;20084;-67
2024/01/28 05:12:07;;;;;;;3.30;1.85;;;4.30;99.90;;;;;;5053237;28;20841;-66
2024/01/28 05:14:34;;;;;;;4.35;2.20;;;4.20;99.90;;;;;;5051851;28;20046;-67
2024/01/28 05:17:00;;;;;;;2.92;1.77;;;4.20;99.90;;;;;;5047618;28;20033;-67
2024/01/28 05:19:26;;;;;;;6.80;2.15;;;4.10;99.90;;;;;;5049167;28;20197;-67
2024/01/28 05:21:52;;;;;;;4.90;1.90;;;4.10;99.90;;;;;;5050093;28;20034;-67
2024/01/28 05:24:18;;;;;;;6.18;1.65;;;4.00;99.90;;;;;;5054715;28;20039;-67
2024/01/28 05:26:43;;;;;;;2.33;1.30;;;3.80;99.90;;;;;;5032903;28;20055;-67
2024/01/28 05:29:09;;;;;;;5.22;1.85;;;3.80;99.90;;;;;;5049967;28;21781;-67
2024/01/28 05:31:35;;;;;;;7.63;2.15;;;3.80;99.90;;;;;;5052238;28;20047;-67
2024/01/28 05:34:01;;;;;;;11.05;5.10;;;3.80;99.90;;;;;;5046456;28;20027;-66
2024/01/28 05:36:27;;;;;;;5.05;1.88;;;3.70;99.90;;;;;;5052925;28;20036;-67
2024/01/28 05:38:54;;;;;;;45.35;20.73;;;3.60;99.90;;;;;;5053674;28;20519;-68
2024/01/28 05:41:20;;;;;;;10.30;4.25;;;3.60;99.90;;;;;;5050410;28;20047;-66
2024/01/28 05:43:46;;;;;;;10.07;4.32;;;3.60;99.90;;;;;;5054048;28;20389;-66
2024/01/28 05:46:11;;;;;;;17.50;8.30;;;3.70;99.90;;;;;;5049396;28;20025;-66
2024/01/28 05:48:37;;;;;;;6.10;3.92;;;3.70;99.90;;;;;;5052608;28;20032;-66
2024/01/28 05:51:03;;;;;;;14.68;6.55;;;3.70;99.90;;;;;;5043447;28;20036;-66
2024/01/28 05:53:29;;;;;;;15.35;5.75;;;3.60;99.90;;;;;;5050773;28;20965;-66
2024/01/28 05:55:54;;;;;;;10.52;4.07;;;3.50;99.90;;;;;;5039858;28;20028;-66
2024/01/28 05:58:22;;;;;;;6.72;2.90;;;3.30;99.90;;;;;;5051296;28;20033;-66
2024/01/28 06:00:48;;;;;;;58.55;26.13;;;3.10;99.90;;;;;;5052004;28;20044;-66
2024/01/28 06:03:14;;;;;;;22.15;9.63;;;3.10;99.90;;;;;;5046604;28;20033;-66
2024/01/28 06:05:40;;;;;;;12.50;5.57;;;3.00;99.90;;;;;;5041549;28;20033;-66
2024/01/28 06:08:07;;;;;;;13.50;6.40;;;3.10;99.90;;;;;;5039557;28;20433;-66
2024/01/28 06:10:32;;;;;;;23.45;11.57;;;3.10;99.90;;;;;;5051515;28;20035;-66
2024/01/28 06:12:58;;;;;;;16.13;6.82;;;3.10;99.90;;;;;;5049513;28;20024;-66
2024/01/28 06:15:23;;;;;;;18.42;6.80;;;3.10;99.90;;;;;;5053258;28;20093;-66
2024/01/28 06:17:49;;;;;;;9.48;4.32;;;3.20;99.90;;;;;;5049718;28;20499;-64
2024/01/28 06:20:15;;;;;;;6.90;3.47;;;3.20;99.90;;;;;;5050802;28;20051;-66
2024/01/28 06:22:40;;;;;;;8.10;2.90;;;3.20;99.90;;;;;;5046812;28;20032;-66
2024/01/28 06:25:07;;;;;;;5.88;2.97;;;3.00;99.90;;;;;;5047160;28;20037;-66
2024/01/28 06:27:33;;;;;;;9.45;3.38;;;2.70;99.90;;;;;;5047905;28;20039;-66
2024/01/28 06:29:58;;;;;;;9.68;3.53;;;2.50;99.90;;;;;;5029501;28;20265;-66
2024/01/28 06:32:25;;;;;;;7.97;2.65;;;2.60;99.90;;;;;;5051352;28;20127;-66
2024/01/28 06:34:50;;;;;;;8.40;2.67;;;2.60;99.90;;;;;;5045363;28;20640;-65
2024/01/28 06:37:16;;;;;;;9.43;3.08;;;2.60;99.90;;;;;;5048563;28;20029;-66
2024/01/28 06:39:42;;;;;;;7.30;3.15;;;2.60;99.90;;;;;;5045521;28;20477;-65
2024/01/28 06:42:09;;;;;;;8.27;3.25;;;2.60;99.90;;;;;;5048979;28;20036;-65
2024/01/28 06:44:36;;;;;;;10.07;4.93;;;2.50;99.90;;;;;;5047604;28;20036;-65
2024/01/28 06:47:03;;;;;;;7.85;4.03;;;2.30;99.90;;;;;;5050506;28;20610;-66
2024/01/28 06:49:29;;;;;;;12.60;5.82;;;2.30;99.90;;;;;;5045954;28;20507;-65
2024/01/28 06:51:54;;;;;;;26.35;9.43;;;2.00;99.90;;;;;;5043486;28;20037;-66
2024/01/28 06:54:21;;;;;;;52.63;21.55;;;2.00;99.90;;;;;;5047567;28;20061;-65
2024/01/28 06:56:48;;;;;;;30.38;12.25;;;2.10;99.90;;;;;;5052210;28;20029;-66
2024/01/28 06:59:14;;;;;;;25.15;13.05;;;2.20;99.90;;;;;;5054204;28;21217;-65
2024/01/28 07:01:40;;;;;;;44.00;19.45;;;2.30;99.90;;;;;;5040976;28;20048;-66
2024/01/28 07:04:05;;;;;;;17.13;8.23;;;2.30;99.90;;;;;;5030413;28;20032;-65
2024/01/28 07:06:31;;;;;;;9.93;6.97;;;2.40;99.90;;;;;;5050087;28;20472;-65
2024/01/28 07:08:57;;;;;;;9.52;5.40;;;2.50;99.90;;;;;;5057774;28;20132;-65
2024/01/28 07:11:23;;;;;;;13.00;6.65;;;2.70;99.90;;;;;;5052341;28;20032;-65
2024/01/28 07:13:48;;;;;;;15.20;8.57;;;2.80;99.90;;;;;;5053916;28;20028;-66
2024/01/28 07:16:14;;;;;;;15.02;8.05;;;3.00;99.90;;;;;;5055565;28;20047;-65
2024/01/28 07:18:40;;;;;;;18.92;9.15;;;3.20;99.90;;;;;;5046977;28;20039;-66
2024/01/28 07:21:05;;;;;;;17.00;8.30;;;3.40;99.90;;;;;;5050774;28;20041;-66
2024/01/28 07:23:31;;;;;;;28.77;14.57;;;3.70;99.90;;;;;;5052110;28;20349;-65
2024/01/28 07:25:57;;;;;;;25.58;14.88;;;3.90;99.90;;;;;;5051463;28;20413;-66
2024/01/28 07:28:23;;;;;;;27.73;15.93;;;4.10;99.90;;;;;;5054451;28;20115;-66
2024/01/28 07:30:49;;;;;;;32.95;15.80;;;4.20;99.90;;;;;;5048348;28;20054;-66
2024/01/28 07:33:15;;;;;;;29.75;9.52;;;4.20;99.90;;;;;;5046642;28;20595;-67
2024/01/28 07:35:41;;;;;;;49.00;17.40;;;4.40;99.90;;;;;;5043178;28;20033;-65
2024/01/28 07:38:08;;;;;;;13.10;7.57;;;4.60;99.90;;;;;;5048929;28;20381;-66
2024/01/28 07:40:34;;;;;;;29.60;11.30;;;4.90;99.90;;;;;;5030784;28;20044;-67
2024/01/28 07:43:00;;;;;;;19.25;8.93;;;5.10;99.90;;;;;;5053293;28;20025;-66
2024/01/28 07:45:26;;;;;;;5.50;2.72;;;5.40;99.90;;;;;;5046468;28;20131;-67
2024/01/28 07:47:51;;;;;;;10.10;4.05;;;5.60;99.90;;;;;;5051087;28;20052;-66
2024/01/28 07:50:18;;;;;;;28.25;16.02;;;5.90;99.90;;;;;;5037525;28;20112;-66
2024/01/28 07:52:43;;;;;;;29.55;12.68;;;6.20;99.90;;;;;;5057616;28;20040;-66
2024/01/28 07:55:11;;;;;;;20.33;8.02;;;6.40;99.90;;;;;;5051648;28;20366;-67
2024/01/28 07:57:36;;;;;;;29.30;11.63;;;6.70;99.90;;;;;;5050917;28;20032;-67
2024/01/28 08:00:04;;;;;;;46.65;17.10;;;7.00;99.90;;;;;;5053095;28;20402;-66
2024/01/28 08:02:30;;;;;;;73.63;26.45;;;7.20;99.90;;;;;;5044390;28;20185;-68
2024/01/28 08:04:56;;;;;;;54.97;16.52;;;7.40;99.90;;;;;;5040108;28;20383;-68
2024/01/28 08:07:22;;;;;;;31.98;19.77;;;7.60;99.90;;;;;;5048198;28;20706;-68
2024/01/28 08:09:47;;;;;;;20.40;14.00;;;7.70;99.90;;;;;;5050015;28;20028;-68
2024/01/28 08:12:13;;;;;;;14.30;8.38;;;7.80;99.90;;;;;;5048083;28;20027;-68
2024/01/28 08:14:38;;;;;;;27.25;20.95;;;7.90;99.90;;;;;;5047287;28;20055;-70
2024/01/28 08:17:04;;;;;;;48.13;19.92;;;8.00;99.90;;;;;;5042955;28;20107;-69
2024/01/28 08:19:31;;;;;;;18.90;10.43;;;8.10;99.90;;;;;;5049454;28;20053;-68
2024/01/28 08:21:57;;;;;;;5.43;3.63;;;8.20;99.90;;;;;;5048452;28;20033;-68
2024/01/28 08:24:23;;;;;;;15.10;5.22;;;8.20;99.90;;;;;;5049076;28;20880;-68
2024/01/28 08:26:48;;;;;;;66.82;28.45;;;8.30;99.90;;;;;;5049907;28;20112;-68
2024/01/28 08:29:14;;;;;;;35.95;20.85;;;8.40;99.90;;;;;;5049527;28;20028;-67
2024/01/28 08:31:40;;;;;;;83.03;38.75;;;8.70;99.90;;;;;;5043132;28;20040;-68
2024/01/28 08:34:06;;;;;;;30.10;14.27;;;8.80;99.90;;;;;;5053345;28;20151;-68
2024/01/28 08:36:32;;;;;;;3.28;2.40;;;8.90;99.90;;;;;;5050532;28;20127;-68
2024/01/28 08:38:58;;;;;;;23.42;11.45;;;8.90;99.90;;;;;;5049712;28;20081;-68
2024/01/28 08:41:23;;;;;;;7.70;5.03;;;8.80;99.90;;;;;;5050447;28;20068;-68
2024/01/28 08:43:49;;;;;;;1.73;1.13;;;8.90;99.90;;;;;;5050749;28;20024;-70
2024/01/28 08:46:16;;;;;;;20.95;7.90;;;9.00;99.90;;;;;;5049812;28;20392;-68
2024/01/28 08:48:42;;;;;;;14.27;6.32;;;9.00;99.90;;;;;;5046893;28;20059;-68
2024/01/28 08:51:07;;;;;;;8.15;3.75;;;9.00;99.90;;;;;;5029190;28;20553;-70
2024/01/28 08:53:33;;;;;;;9.23;4.28;;;9.00;99.90;;;;;;5051564;28;20028;-69
2024/01/28 08:55:58;;;;;;;2.03;1.50;;;9.00;99.90;;;;;;5051984;28;20028;-69
2024/01/28 08:58:24;;;;;;;5.25;2.25;;;9.10;99.90;;;;;;5053388;28;20621;-67
2024/01/28 09:00:50;;;;;;;1.70;0.73;;;9.10;99.90;;;;;;5050317;28;20036;-67
2024/01/28 09:03:15;;;;;;;22.27;11.95;;;9.00;99.90;;;;;;5051709;28;20103;-66
2024/01/28 09:05:41;;;;;;;10.00;4.60;;;9.00;99.90;;;;;;5045243;28;20033;-68
2024/01/28 09:08:07;;;;;;;1.80;1.17;;;9.00;99.90;;;;;;5046212;28;20078;-67
2024/01/28 09:10:33;;;;;;;16.50;10.20;;;9.20;99.90;;;;;;5048428;28;20028;-67
2024/01/28 09:12:59;;;;;;;12.90;6.85;;;9.10;99.90;;;;;;5048591;28;20067;-67
2024/01/28 09:15:24;;;;;;;8.20;3.70;;;9.20;99.90;;;;;;5031048;28;20090;-68
2024/01/28 09:17:50;;;;;;;5.20;2.08;;;9.20;99.90;;;;;;5044245;28;20084;-68
2024/01/28 09:20:15;;;;;;;4.20;2.85;;;9.20;99.90;;;;;;5023045;28;20075;-67
2024/01/28 09:22:41;;;;;;;78.05;38.38;;;9.30;99.90;;;;;;5036677;28;20368;-67
2024/01/28 09:25:07;;;;;;;60.00;33.60;;;9.30;99.90;;;;;;5025398;28;20095;-67
2024/01/28 09:27:33;;;;;;;85.63;54.95;;;9.30;99.90;;;;;;5040036;28;20036;-67
2024/01/28 09:29:58;;;;;;;42.35;22.85;;;9.30;99.90;;;;;;5045061;28;20504;-70
2024/01/28 09:32:24;;;;;;;25.27;13.63;;;9.30;99.90;;;;;;5038980;28;20028;-67
2024/01/28 09:34:51;;;;;;;24.98;13.10;;;9.30;99.90;;;;;;5048578;28;20491;-73
2024/01/28 09:37:17;;;;;;;7.43;2.47;;;9.20;99.90;;;;;;5046369;28;20024;-67
2024/01/28 09:39:43;;;;;;;6.18;3.08;;;9.20;99.90;;;;;;5046683;28;20078;-67
2024/01/28 09:42:30;;;;;;;4.65;2.58;;;9.00;99.90;;;;;;5017778;28;20140;-68
2024/01/28 09:44:58;;;;;;;42.53;20.70;;;8.90;99.90;;;;;;5042200;28;20021;-68
2024/01/28 09:47:25;;;;;;;14.68;7.93;;;8.80;99.90;;;;;;5046120;28;20142;-68
2024/01/28 09:49:51;;;;;;;1.90;1.42;;;8.90;99.90;;;;;;5029269;28;20215;-68
2024/01/28 09:52:17;;;;;;;29.67;13.35;;;8.80;99.90;;;;;;5042631;28;20056;-68
2024/01/28 09:54:47;;;;;;;39.15;16.27;;;8.80;99.90;;;;;;5027814;28;20450;-69
2024/01/28 09:57:15;;;;;;;13.98;5.75;;;8.80;99.90;;;;;;5045184;28;20348;-68
2024/01/28 09:59:40;;;;;;;40.72;28.17;;;8.90;99.90;;;;;;5046682;28;20051;-67
2024/01/28 10:02:07;;;;;;;81.57;52.13;;;8.90;99.90;;;;;;5043299;28;20516;-67
2024/01/28 10:04:33;;;;;;;47.38;32.13;;;8.90;99.90;;;;;;5045033;28;20024;-67
2024/01/28 10:07:02;;;;;;;19.08;13.50;;;8.80;99.90;;;;;;5037270;28;20063;-67
2024/01/28 10:09:28;;;;;;;24.58;20.17;;;8.80;99.90;;;;;;5043035;28;20024;-67
2024/01/28 10:11:58;;;;;;;32.30;18.27;;;8.60;99.90;;;;;;5042181;28;20059;-67
2024/01/28 10:14:23;;;;;;;9.23;7.38;;;8.60;99.90;;;;;;5047281;28;20108;-67
2024/01/28 10:16:49;;;;;;;20.55;9.68;;;8.70;99.90;;;;;;5047135;28;20029;-67
2024/01/28 10:19:15;;;;;;;1.27;1.17;;;8.80;99.90;;;;;;5046779;28;20129;-67
2024/01/28 10:21:44;;;;;;;9.48;4.07;;;8.80;99.90;;;;;;5046657;28;20045;-67
2024/01/28 10:24:11;;;;;;;2.05;0.93;;;8.70;99.90;;;;;;5043155;28;20040;-66
2024/01/28 10:26:37;;;;;;;1.38;0.93;;;8.70;99.90;;;;;;5050257;28;20024;-66
2024/01/28 10:29:03;;;;;;;24.98;11.82;;;8.70;99.90;;;;;;5042680;28;20559;-66
2024/01/28 10:31:29;;;;;;;2.58;1.25;;;8.70;99.90;;;;;;5048526;28;20047;-66
2024/01/28 10:33:55;;;;;;;3.55;1.38;;;8.70;99.90;;;;;;5047280;28;20025;-65
2024/01/28 10:36:21;;;;;;;20.58;6.90;;;8.70;99.90;;;;;;5048535;28;20128;-66
2024/01/28 10:38:48;;;;;;;5.15;2.70;;;8.70;99.90;;;;;;5029067;28;20782;-66
2024/01/28 10:41:17;;;;;;;5.80;3.63;;;8.70;99.90;;;;;;5051458;28;20083;-65
2024/01/28 10:43:55;;;;;;;45.03;19.30;;;8.70;99.90;;;;;;5041454;28;20029;-68
2024/01/28 10:46:38;;;;;;;13.27;6.40;;;8.80;99.90;;;;;;5047043;28;20097;-67
2024/01/28 10:49:09;;;;;;;45.97;18.73;;;8.90;99.90;;;;;;5044721;28;21410;-67
2024/01/28 10:51:41;;;;;;;1.90;1.20;;;8.90;99.90;;;;;;5044853;28;20024;-67
2024/01/28 10:54:07;;;;;;;;;;;8.80;99.90;;;;;;5049612;28;20500;-67
2024/01/28 10:56:37;;;;;;;45.17;18.77;;;8.80;99.90;;;;;;5047270;28;19912;-67
2024/01/28 10:59:03;;;;;;;1.45;1.17;;;8.80;99.90;;;;;;5045637;28;20028;-67
2024/01/28 11:01:30;;;;;;;1.02;0.57;;;8.80;99.90;;;;;;5047422;28;20097;-66
2024/01/28 11:03:57;;;;;;;1.23;0.68;;;9.00;99.90;;;;;;5044417;28;20021;-66
2024/01/28 11:06:26;;;;;;;46.63;17.85;;;9.10;99.70;;;;;;5044750;28;20066;-67
2024/01/28 11:08:54;;;;;;;2.88;1.50;;;9.10;99.70;;;;;;5030723;28;20028;-67
2024/01/28 11:11:20;;;;;;;10.90;5.50;;;9.10;99.90;;;;;;5040652;28;20038;-67
2024/01/28 11:13:46;;;;;;;28.25;12.38;;;9.20;99.90;;;;;;5045047;28;20045;-67
2024/01/28 11:16:14;;;;;;;8.70;2.85;;;9.20;99.90;;;;;;5051008;28;20086;-68
2024/01/28 11:18:40;;;;;;;7.28;3.83;;;9.20;99.60;;;;;;5051300;28;20106;-66
2024/01/28 11:21:12;;;;;;;52.75;22.17;;;9.30;99.80;;;;;;5051815;28;20033;-65
2024/01/28 11:23:41;;;;;;;;;;;9.30;99.80;;;;;;5057011;28;20025;-66
2024/01/28 11:26:13;;;;;;;3.30;1.45;;;9.40;99.20;;;;;;5043208;28;19919;-68
2024/01/28 11:28:49;;;;;;;30.63;21.90;;;9.40;99.30;;;;;;5048386;28;20650;-67
2024/01/28 11:31:34;;;;;;;1.38;1.27;;;9.40;98.70;;;;;;5049792;28;20465;-68
2024/01/28 11:34:17;;;;;;;2.42;0.80;;;9.50;98.60;;;;;;5047376;28;20040;-65
2024/01/28 11:36:47;;;;;;;6.55;2.78;;;9.50;98.50;;;;;;5046088;28;20069;-67
2024/01/28 11:39:15;;;;;;;2.03;1.40;;;9.50;98.70;;;;;;5047548;28;20487;-66
2024/01/28 11:41:43;;;;;;;1.92;0.63;;;9.50;98.70;;;;;;5048341;28;20779;-65
2024/01/28 11:44:09;;;;;;;10.05;8.23;;;9.50;98.10;;;;;;5048188;28;20145;-66
2024/01/28 11:46:36;;;;;;;3.40;1.83;;;9.60;98.20;;;;;;5050551;28;20094;-66
2024/01/28 11:49:02;;;;;;;3.45;2.95;;;9.50;99.90;;;;;;5047914;28;20046;-66
2024/01/28 11:51:33;;;;;;;6.40;2.95;;;9.40;99.90;;;;;;5046558;28;20043;-67
2024/01/28 11:54:00;;;;;;;3.95;3.00;;;9.30;99.90;;;;;;5026385;28;20089;-66
2024/01/28 11:56:28;;;;;;;5.60;1.80;;;9.10;99.90;;;;;;5048956;28;20024;-67
2024/01/28 11:58:54;;;;;;;6.53;3.10;;;9.00;99.90;;;;;;5047346;28;20035;-67
2024/01/28 12:01:20;;;;;;;11.82;8.50;;;9.00;99.90;;;;;;5051493;28;20467;-67
2024/01/28 12:03:46;;;;;;;5.28;4.57;;;8.90;99.90;;;;;;5048256;28;20025;-65
2024/01/28 12:06:12;;;;;;;9.10;6.57;;;8.90;99.90;;;;;;5037701;28;20028;-67
2024/01/28 12:08:41;;;;;;;19.25;13.20;;;9.00;99.90;;;;;;5046602;28;20213;-66
2024/01/28 12:11:07;;;;;;;14.43;9.60;;;9.00;99.90;;;;;;5045270;28;20889;-66
2024/01/28 12:13:33;;;;;;;5.20;3.53;;;9.00;99.90;;;;;;5049765;28;20044;-66
2024/01/28 12:15:59;;;;;;;4.55;2.40;;;9.10;99.90;;;;;;5046762;28;20024;-66
2024/01/28 12:18:38;;;;;;;5.03;2.42;;;9.20;99.90;;;;;;5041951;28;20548;-66
2024/01/28 12:21:05;;;;;;;2.65;1.90;;;9.20;99.90;;;;;;5044982;28;20049;-66
2024/01/28 12:23:31;;;;;;;8.77;3.60;;;9.20;99.90;;;;;;5041922;28;20445;-66
2024/01/28 12:25:57;;;;;;;7.53;2.75;;;9.10;99.90;;;;;;5045444;28;20040;-67
2024/01/28 12:28:23;;;;;;;4.07;2.08;;;9.10;99.90;;;;;;5045604;28;20063;-66
2024/01/28 12:30:49;;;;;;;3.63;2.10;;;9.20;99.90;;;;;;5052681;28;20148;-66
2024/01/28 12:33:17;;;;;;;4.68;1.85;;;9.30;99.90;;;;;;5053380;28;20036;-67
2024/01/28 12:35:42;;;;;;;1.77;1.30;;;9.30;99.90;;;;;;5047575;28;20591;-67
2024/01/28 12:38:08;;;;;;;3.05;1.40;;;9.20;99.90;;;;;;5050916;28;20131;-67
2024/01/28 12:40:33;;;;;;;5.15;1.90;;;9.20;99.90;;;;;;5051521;28;21068;-67
2024/01/28 12:42:59;;;;;;;2.45;1.02;;;9.30;99.90;;;;;;5055312;28;21001;-67
2024/01/28 12:45:24;;;;;;;3.53;1.38;;;9.30;99.90;;;;;;5053956;28;20016;-66
2024/01/28 12:47:50;;;;;;;2.95;1.60;;;9.30;99.90;;;;;;5051810;28;20349;-65